createdAt,value
2022-10-06T00:01:20.337Z,96714.09
2022-10-06T00:03:50.757Z,96708.56
2022-10-06T00:06:20.319Z,96711.13
2022-10-06T00:08:49.138Z,96712.91
2022-10-06T00:11:18.040Z,96698.94
2022-10-06T00:13:47.168Z,96711.38
2022-10-06T00:16:22.118Z,96714.78
2022-10-06T00:18:51.080Z,96715.88
2022-10-06T00:21:19.869Z,96706.53
2022-10-06T00:23:48.732Z,96718.16
2022-10-06T00:26:17.669Z,96720.53
2022-10-06T00:28:50.364Z,96722.81
2022-10-06T00:31:20.140Z,96724.63
2022-10-06T00:33:50.943Z,96724.03
2022-10-06T00:36:20.246Z,96728.47
2022-10-06T00:38:49.136Z,96739.31
2022-10-06T00:41:19.068Z,96726.03
2022-10-06T00:43:57.586Z,96733.13
2022-10-06T00:46:42.163Z,96744.19
2022-10-06T00:49:24.717Z,96740.16
2022-10-06T00:51:58.597Z,96748.13
2022-10-06T00:54:28.543Z,96742.53
2022-10-06T00:56:58.889Z,96752.28
2022-10-06T00:59:27.792Z,96760.47
2022-10-06T01:02:04.250Z,96761.31
2022-10-06T01:04:42.373Z,96756.69
2022-10-06T01:07:11.902Z,96749.66
2022-10-06T01:09:41.435Z,96765.84
2022-10-06T01:12:10.519Z,96766.25
2022-10-06T01:14:40.915Z,96765.88
2022-10-06T01:17:24.817Z,96762.53
2022-10-06T01:20:00.816Z,96769.84
2022-10-06T01:22:36.011Z,96777.16
2022-10-06T01:25:10.682Z,96766.13
2022-10-06T01:27:42.915Z,96773.25
2022-10-06T01:30:17.714Z,96780.16
2022-10-06T01:32:55.714Z,96779.09
2022-10-06T01:35:25.477Z,96784.09
2022-10-06T01:37:55.396Z,96788.44
2022-10-06T01:40:26.150Z,96795.81
2022-10-06T01:42:54.967Z,96805.38
2022-10-06T01:45:26.919Z,96793.00
2022-10-06T01:47:55.907Z,96793.91
2022-10-06T01:50:24.873Z,96787.47
2022-10-06T01:52:56.576Z,96794.63
2022-10-06T01:55:26.283Z,96804.31
2022-10-06T01:57:56.808Z,96816.06
2022-10-06T02:00:26.604Z,96810.13
2022-10-06T02:02:55.900Z,96809.97
2022-10-06T02:05:25.033Z,96817.25
2022-10-06T02:07:55.059Z,96820.34
2022-10-06T02:10:24.052Z,96811.38
2022-10-06T02:12:54.437Z,96820.94
2022-10-06T02:15:24.688Z,96822.03
2022-10-06T02:17:54.587Z,96827.81
2022-10-06T02:20:28.028Z,96837.75
2022-10-06T02:22:56.901Z,96826.91
2022-10-06T02:25:25.736Z,96822.84
2022-10-06T02:27:55.861Z,96828.06
2022-10-06T02:30:24.718Z,96818.75
2022-10-06T02:32:54.234Z,96833.38
2022-10-06T02:35:23.384Z,96825.28
2022-10-06T02:37:52.857Z,96829.34
2022-10-06T02:40:23.734Z,96826.94
2022-10-06T02:42:52.719Z,96833.22
2022-10-06T02:45:24.129Z,96838.81
2022-10-06T02:47:57.556Z,96828.41
2022-10-06T02:50:26.430Z,96844.22
2022-10-06T02:52:55.955Z,96824.88
2022-10-06T02:55:24.814Z,96843.56
2022-10-06T02:57:55.866Z,96841.91
2022-10-06T03:00:25.451Z,96846.94
2022-10-06T03:02:57.301Z,96853.47
2022-10-06T03:05:26.342Z,96847.44
2022-10-06T03:07:55.428Z,96858.28
2022-10-06T03:10:24.565Z,96861.84
2022-10-06T03:12:53.805Z,96859.09
2022-10-06T03:15:22.648Z,96856.81
2022-10-06T03:17:53.065Z,96858.97
2022-10-06T03:20:22.191Z,96859.72
2022-10-06T03:22:54.859Z,96858.59
2022-10-06T03:25:23.771Z,96853.06
2022-10-06T03:27:52.902Z,96860.47
2022-10-06T03:30:22.715Z,96858.28
2022-10-06T03:32:53.653Z,96857.19
2022-10-06T03:35:22.679Z,96854.03
2022-10-06T03:37:51.666Z,96850.72
2022-10-06T03:40:20.943Z,96864.53
2022-10-06T03:42:49.784Z,96854.34
2022-10-06T03:45:18.715Z,96864.63
2022-10-06T03:47:47.721Z,96857.38
2022-10-06T03:50:16.870Z,96859.50
2022-10-06T03:52:45.763Z,96852.44
2022-10-06T03:55:14.727Z,96858.78
2022-10-06T03:57:43.710Z,96853.53
2022-10-06T04:00:15.024Z,96856.31
2022-10-06T04:02:45.150Z,96859.09
2022-10-06T04:05:14.083Z,96863.31
2022-10-06T04:07:43.484Z,96855.75
2022-10-06T04:10:12.936Z,96860.69
2022-10-06T04:12:41.793Z,96859.03
2022-10-06T04:15:12.565Z,96864.28
2022-10-06T04:17:42.276Z,96863.19
2022-10-06T04:20:12.580Z,96866.81
2022-10-06T04:22:41.459Z,96859.09
2022-10-06T04:25:10.850Z,96857.66
2022-10-06T04:27:39.968Z,96850.59
2022-10-06T04:30:13.178Z,96857.69
2022-10-06T04:32:43.941Z,96864.31
2022-10-06T04:35:13.213Z,96865.06
2022-10-06T04:37:42.134Z,96844.84
2022-10-06T04:40:11.482Z,96854.59
2022-10-06T04:42:41.107Z,96854.84
2022-10-06T04:45:14.423Z,96863.63
2022-10-06T04:47:44.339Z,96866.00
2022-10-06T04:50:14.307Z,96854.22
2022-10-06T04:53:01.975Z,96855.19
2022-10-06T04:55:32.580Z,96860.22
2022-10-06T04:58:01.559Z,96860.84
2022-10-06T05:00:31.595Z,96867.00
2022-10-06T05:03:00.629Z,96864.34
2022-10-06T05:05:29.557Z,96870.97
2022-10-06T05:07:59.171Z,96871.13
2022-10-06T05:10:29.352Z,96869.41
2022-10-06T05:12:58.649Z,96868.50
2022-10-06T05:15:29.765Z,96875.63
2022-10-06T05:17:59.242Z,96874.22
2022-10-06T05:20:28.617Z,96863.47
2022-10-06T05:22:57.576Z,96874.06
2022-10-06T05:25:26.487Z,96871.50
2022-10-06T05:27:55.492Z,96869.41
2022-10-06T05:30:24.408Z,96864.88
2022-10-06T05:32:53.394Z,96865.47
2022-10-06T05:35:22.441Z,96866.41
2022-10-06T05:37:51.336Z,96858.25
2022-10-06T05:40:20.178Z,96867.09
2022-10-06T05:42:49.068Z,96863.00
2022-10-06T05:45:18.458Z,96862.63
2022-10-06T05:47:47.334Z,96872.59
2022-10-06T05:50:16.547Z,96872.25
2022-10-06T05:52:45.428Z,96877.72
2022-10-06T05:55:14.565Z,96872.81
2022-10-06T05:57:44.029Z,96875.47
2022-10-06T06:00:13.782Z,96869.34
2022-10-06T06:02:45.229Z,96857.47
2022-10-06T06:05:15.643Z,96861.63
2022-10-06T06:07:44.543Z,96866.72
2022-10-06T06:10:13.376Z,96859.34
2022-10-06T06:12:42.214Z,96866.78
2022-10-06T06:15:51.611Z,96864.38
2022-10-06T06:18:21.559Z,96859.63
2022-10-06T06:21:05.684Z,96868.00
2022-10-06T06:23:37.473Z,96863.22
2022-10-06T06:26:12.491Z,96867.63
2022-10-06T06:28:49.727Z,96871.13
2022-10-06T06:31:23.237Z,96877.97
2022-10-06T06:33:57.003Z,96878.13
2022-10-06T06:36:36.185Z,96877.94
2022-10-06T06:39:14.633Z,96873.25
2022-10-06T06:41:46.933Z,96877.81
2022-10-06T06:44:35.410Z,96872.13
2022-10-06T06:47:08.427Z,96877.44
2022-10-06T06:49:37.946Z,96877.06
2022-10-06T06:52:10.674Z,96887.06
2022-10-06T06:54:42.402Z,96886.69
2022-10-06T06:57:15.954Z,96874.75
2022-10-06T06:59:48.327Z,96877.63
2022-10-06T07:02:19.581Z,96867.44
2022-10-06T07:04:50.055Z,96876.25
2022-10-06T07:07:21.788Z,96880.00
2022-10-06T07:09:50.722Z,96878.56
2022-10-06T07:12:22.170Z,96860.03
2022-10-06T07:15:18.054Z,96852.31
2022-10-06T07:18:12.384Z,96865.78
2022-10-06T07:21:00.243Z,96879.22
2022-10-06T07:23:48.489Z,96875.38
2022-10-06T07:26:21.057Z,96873.13
2022-10-06T07:28:52.991Z,96871.66
2022-10-06T07:31:22.022Z,96878.50
2022-10-06T07:33:52.054Z,96881.47
2022-10-06T07:36:22.518Z,96873.59
2022-10-06T07:38:51.402Z,96867.66
2022-10-06T07:41:20.716Z,96881.19
2022-10-06T07:43:56.628Z,96883.22
2022-10-06T07:46:28.482Z,96879.28
2022-10-06T07:49:27.854Z,96879.00
2022-10-06T07:51:57.439Z,96872.59
2022-10-06T07:54:27.546Z,96873.06
2022-10-06T07:57:36.093Z,96877.53
2022-10-06T08:00:07.846Z,96885.84
2022-10-06T08:02:43.703Z,96862.66
2022-10-06T08:05:12.896Z,96870.41
2022-10-06T08:07:42.446Z,96868.00
2022-10-06T08:10:11.425Z,96877.66
2022-10-06T08:12:41.218Z,96880.41
2022-10-06T08:15:12.628Z,96885.75
2022-10-06T08:17:42.412Z,96866.56
2022-10-06T08:20:13.643Z,96879.38
2022-10-06T08:22:42.516Z,96875.31
2022-10-06T08:25:12.781Z,96887.91
2022-10-06T08:27:44.743Z,96873.88
2022-10-06T08:30:14.375Z,96875.78
2022-10-06T08:32:43.906Z,96887.00
2022-10-06T08:35:12.681Z,96885.53
2022-10-06T08:37:42.121Z,96886.41
2022-10-06T08:40:15.562Z,96890.09
2022-10-06T08:42:50.802Z,96893.47
2022-10-06T08:45:29.619Z,96891.69
2022-10-06T08:48:10.613Z,96888.13
2022-10-06T08:51:07.544Z,96895.81
2022-10-06T08:53:47.386Z,96887.44
2022-10-06T08:56:23.782Z,96900.44
2022-10-06T08:59:05.165Z,96897.81
2022-10-06T09:01:49.549Z,96905.41
2022-10-06T09:04:29.645Z,96903.31
2022-10-06T09:07:17.405Z,96910.84
2022-10-06T09:10:04.793Z,96918.34
2022-10-06T09:12:45.577Z,96924.69
2022-10-06T09:15:36.208Z,96927.84
2022-10-06T09:18:34.856Z,96929.06
2022-10-06T09:21:31.279Z,96911.44
2022-10-06T09:24:06.671Z,96924.66
2022-10-06T09:26:37.202Z,96926.19
2022-10-06T09:29:06.386Z,96924.22
2022-10-06T09:31:40.119Z,96924.63
2022-10-06T09:34:35.505Z,96926.66
2022-10-06T09:37:14.296Z,96937.03
2022-10-06T09:39:53.510Z,96936.22
2022-10-06T09:42:22.947Z,96931.44
2022-10-06T09:44:59.318Z,96936.59
2022-10-06T09:47:32.567Z,96932.97
2022-10-06T09:50:13.278Z,96933.53
2022-10-06T09:53:06.572Z,96938.66
2022-10-06T09:55:38.531Z,96949.91
2022-10-06T09:58:24.242Z,96940.59
2022-10-06T10:01:09.259Z,96956.69
2022-10-06T10:04:01.951Z,96943.53
2022-10-06T10:06:35.785Z,96945.03
2022-10-06T10:09:16.719Z,96956.09
2022-10-06T10:12:20.581Z,96955.94
2022-10-06T10:14:49.466Z,96955.78
2022-10-06T10:17:33.051Z,96966.47
2022-10-06T10:20:03.926Z,96958.59
2022-10-06T10:22:40.614Z,96967.97
2022-10-06T10:25:50.080Z,96967.56
2022-10-06T10:28:25.064Z,96964.19
2022-10-06T10:30:56.717Z,96974.00
2022-10-06T10:33:59.515Z,96974.50
2022-10-06T10:36:46.018Z,96976.78
2022-10-06T10:39:30.236Z,96971.06
2022-10-06T10:42:05.450Z,96971.06
2022-10-06T10:44:38.822Z,96972.94
2022-10-06T10:47:33.602Z,96980.41
2022-10-06T10:50:18.183Z,96987.41
2022-10-06T10:52:50.080Z,96985.19
2022-10-06T10:55:23.816Z,96990.28
2022-10-06T10:57:56.434Z,96990.78
2022-10-06T11:00:29.209Z,96993.09
2022-10-06T11:02:59.778Z,96998.34
2022-10-06T11:05:56.394Z,96985.91
2022-10-06T11:08:30.176Z,96993.25
2022-10-06T11:11:03.202Z,96999.56
2022-10-06T11:13:53.290Z,97000.06
2022-10-06T11:16:38.018Z,97001.41
2022-10-06T11:19:19.759Z,97004.19
2022-10-06T11:22:18.569Z,97007.41
2022-10-06T11:25:28.260Z,97008.41
2022-10-06T11:28:17.805Z,96995.69
2022-10-06T11:31:21.944Z,97016.72
2022-10-06T11:34:00.788Z,97024.66
2022-10-06T11:36:48.193Z,97021.63
2022-10-06T11:39:41.819Z,97026.88
2022-10-06T11:42:26.686Z,97028.66
2022-10-06T11:45:14.443Z,97034.19
2022-10-06T11:48:16.833Z,97037.09
2022-10-06T11:50:47.793Z,97033.13
2022-10-06T11:53:37.796Z,97039.81
2022-10-06T11:56:18.906Z,97036.94
2022-10-06T11:58:56.637Z,97043.94
2022-10-06T12:01:32.191Z,97035.22
2022-10-06T12:04:09.717Z,97040.94
2022-10-06T12:06:47.775Z,97047.13
2022-10-06T12:09:31.808Z,97049.28
2022-10-06T12:12:27.510Z,97055.78
2022-10-06T12:18:44.977Z,97059.63
2022-10-06T12:21:18.221Z,97063.00
2022-10-06T12:24:42.602Z,97062.97
2022-10-06T12:27:30.231Z,97059.91
2022-10-06T12:30:05.473Z,97065.34
2022-10-06T12:32:50.839Z,97065.72
2022-10-06T12:35:30.831Z,97070.31
2022-10-06T12:38:05.261Z,97076.47
2022-10-06T12:40:49.478Z,97077.28
2022-10-06T12:43:18.447Z,97081.09
2022-10-06T12:46:13.724Z,97073.47
2022-10-06T12:49:01.632Z,97085.91
2022-10-06T12:51:42.194Z,97088.63
2022-10-06T12:54:17.977Z,97087.34
2022-10-06T12:57:01.262Z,97091.56
2022-10-06T12:59:34.596Z,97096.09
2022-10-06T13:02:11.402Z,97101.19
2022-10-06T13:04:41.667Z,97092.97
2022-10-06T13:07:31.812Z,97099.34
2022-10-06T13:10:15.452Z,97094.06
2022-10-06T13:12:50.854Z,97098.06
2022-10-06T13:15:22.773Z,97097.84
2022-10-06T13:18:14.019Z,97099.97
2022-10-06T13:20:51.802Z,97107.66
2022-10-06T13:23:40.128Z,97097.88
2022-10-06T13:26:15.345Z,97108.94
2022-10-06T13:28:44.185Z,97115.25
2022-10-06T13:31:15.953Z,97123.41
2022-10-06T13:33:46.633Z,97117.47
2022-10-06T13:36:16.164Z,97124.34
2022-10-06T13:38:46.176Z,97116.66
2022-10-06T13:41:21.475Z,97123.59
2022-10-06T13:43:56.689Z,97123.47
2022-10-06T13:46:28.470Z,97136.03
2022-10-06T13:49:03.278Z,97131.56
2022-10-06T13:51:33.829Z,97128.16
2022-10-06T13:54:22.517Z,97140.94
2022-10-06T13:56:51.685Z,97140.41
2022-10-06T13:59:29.670Z,97148.19
2022-10-06T14:02:03.145Z,97145.06
2022-10-06T14:04:34.686Z,97145.56
2022-10-06T14:07:06.474Z,97153.59
2022-10-06T14:09:35.548Z,97147.75
2022-10-06T14:12:26.650Z,97142.44
2022-10-06T14:14:55.620Z,97146.38
2022-10-06T14:17:26.719Z,97157.47
2022-10-06T14:19:55.987Z,97148.63
2022-10-06T14:22:38.799Z,97161.78
2022-10-06T14:25:15.822Z,97149.19
2022-10-06T14:27:44.350Z,97154.94
2022-10-06T14:30:13.375Z,97162.03
2022-10-06T14:32:42.138Z,97148.97
2022-10-06T14:35:14.581Z,97162.44
2022-10-06T14:37:43.360Z,97144.69
2022-10-06T14:40:12.397Z,97153.69
2022-10-06T14:42:41.353Z,97161.28
2022-10-06T14:45:10.718Z,97166.03
2022-10-06T14:47:39.452Z,97163.44
2022-10-06T14:50:08.521Z,97160.03
2022-10-06T14:52:38.512Z,97161.63
2022-10-06T14:55:08.823Z,97171.16
2022-10-06T14:57:37.644Z,97164.31
2022-10-06T15:00:09.773Z,97170.81
2022-10-06T15:02:39.046Z,97179.63
2022-10-06T15:05:08.408Z,97169.41
2022-10-06T15:07:55.863Z,97169.53
2022-10-06T15:10:24.966Z,97181.44
2022-10-06T15:12:54.114Z,97202.16
2022-10-06T15:15:22.893Z,97190.41
2022-10-06T15:17:53.743Z,97179.00
2022-10-06T15:20:22.490Z,97197.44
2022-10-06T15:22:51.252Z,97198.72
2022-10-06T15:25:38.877Z,97200.53
2022-10-06T15:28:26.226Z,97174.09
2022-10-06T15:30:55.145Z,97209.28
2022-10-06T15:33:24.082Z,97203.41
2022-10-06T15:36:14.460Z,97214.72
2022-10-06T15:38:43.812Z,97219.22
2022-10-06T15:41:13.429Z,97220.81
2022-10-06T15:43:57.621Z,97219.72
2022-10-06T15:46:56.895Z,97226.34
2022-10-06T15:49:27.631Z,97230.38
2022-10-06T15:51:59.987Z,97211.09
2022-10-06T15:54:31.294Z,97218.81
2022-10-06T15:57:02.266Z,97235.50
2022-10-06T15:59:34.614Z,97234.47
2022-10-06T16:02:08.498Z,97227.56
2022-10-06T16:04:39.698Z,97240.53
2022-10-06T16:07:14.892Z,97255.44
2022-10-06T16:09:53.263Z,97250.63
2022-10-06T16:12:25.346Z,97250.88
2022-10-06T16:14:54.393Z,97248.75
2022-10-06T16:17:23.222Z,97249.78
2022-10-06T16:19:52.266Z,97260.66
2022-10-06T16:22:22.427Z,97256.94
2022-10-06T16:24:51.293Z,97248.97
2022-10-06T16:27:20.209Z,97263.06
2022-10-06T16:29:49.286Z,97272.59
2022-10-06T16:32:18.285Z,97261.69
2022-10-06T16:34:50.993Z,97265.94
2022-10-06T16:37:19.902Z,97253.53
2022-10-06T16:39:48.621Z,97274.75
2022-10-06T16:42:18.612Z,97264.63
2022-10-06T16:44:47.527Z,97278.19
2022-10-06T16:47:16.323Z,97265.50
2022-10-06T16:49:45.268Z,97263.16
2022-10-06T16:52:14.192Z,97270.63
2022-10-06T16:54:43.008Z,97273.78
2022-10-06T16:57:11.890Z,97282.84
2022-10-06T16:59:45.786Z,97277.78
2022-10-06T17:02:16.460Z,97280.47
2022-10-06T17:04:45.578Z,97274.09
2022-10-06T17:07:14.403Z,97277.28
2022-10-06T17:09:56.113Z,97278.38
2022-10-06T17:12:31.970Z,97276.03
2022-10-06T17:15:00.691Z,97281.41
2022-10-06T17:17:29.502Z,97270.06
2022-10-06T17:19:58.455Z,97278.34
2022-10-06T17:22:27.342Z,97285.56
2022-10-06T17:24:56.111Z,97295.16
2022-10-06T17:27:29.064Z,97295.19
2022-10-06T17:29:57.956Z,97292.84
2022-10-06T17:32:26.764Z,97283.31
2022-10-06T17:34:55.848Z,97301.91
2022-10-06T17:37:24.574Z,97297.16
2022-10-06T17:39:53.443Z,97297.97
2022-10-06T17:42:22.326Z,97298.25
2022-10-06T17:44:53.551Z,97301.19
2022-10-06T17:47:22.320Z,97306.78
2022-10-06T17:49:51.349Z,97310.22
2022-10-06T17:52:24.254Z,97296.44
2022-10-06T17:54:54.936Z,97308.09
2022-10-06T17:57:23.706Z,97300.41
2022-10-06T17:59:53.408Z,97314.75
2022-10-06T18:02:23.123Z,97316.63
2022-10-06T18:04:54.011Z,97311.03
2022-10-06T18:07:22.839Z,97318.22
2022-10-06T18:10:11.555Z,97316.63
2022-10-06T18:12:40.426Z,97319.00
2022-10-06T18:15:12.857Z,97317.16
2022-10-06T18:17:42.895Z,97328.03
2022-10-06T18:20:12.094Z,97314.25
2022-10-06T18:22:41.072Z,97336.28
2022-10-06T18:25:17.148Z,97329.38
2022-10-06T18:27:48.325Z,97339.19
2022-10-06T18:30:17.410Z,97336.78
2022-10-06T18:38:27.837Z,97347.38
2022-10-06T18:41:05.573Z,97349.53
2022-10-06T18:43:34.314Z,97350.03
2022-10-06T18:46:24.514Z,97352.44
2022-10-06T18:48:56.879Z,97360.13
2022-10-06T18:51:28.853Z,97356.41
2022-10-06T18:53:59.479Z,97358.50
2022-10-06T18:56:32.121Z,97361.13
2022-10-06T18:59:09.326Z,97355.00
2022-10-06T19:01:40.910Z,97364.00
2022-10-06T19:04:10.826Z,97372.47
2022-10-06T19:06:41.069Z,97354.41
2022-10-06T19:09:09.803Z,97368.69
2022-10-06T19:11:53.862Z,97371.34
2022-10-06T19:14:26.061Z,97378.25
2022-10-06T19:17:03.868Z,97387.56
2022-10-06T19:19:33.344Z,97383.03
2022-10-06T19:22:04.316Z,97389.69
2022-10-06T19:24:44.752Z,97390.72
2022-10-06T19:27:16.472Z,97379.81
2022-10-06T19:29:47.518Z,97396.22
2022-10-06T19:32:19.032Z,97397.81
2022-10-06T19:34:49.025Z,97407.06
2022-10-06T19:37:17.957Z,97410.75
2022-10-06T19:39:50.596Z,97411.78
2022-10-06T19:42:38.949Z,97408.59
2022-10-06T19:45:09.263Z,97417.06
2022-10-06T19:47:38.047Z,97406.97
2022-10-06T19:50:12.065Z,97420.47
2022-10-06T19:52:42.827Z,97420.19
2022-10-06T19:55:11.756Z,97417.31
2022-10-06T19:57:40.755Z,97422.59
2022-10-06T20:00:11.475Z,97427.38
2022-10-06T20:02:44.822Z,97428.44
2022-10-06T20:05:15.768Z,97427.41
2022-10-06T20:07:46.914Z,97429.25
2022-10-06T20:10:16.203Z,97427.94
2022-10-06T20:12:45.030Z,97431.94
2022-10-06T20:15:14.730Z,97440.72
2022-10-06T20:17:44.886Z,97443.91
2022-10-06T20:20:14.942Z,97441.50
2022-10-06T20:22:43.741Z,97439.13
2022-10-06T20:25:12.508Z,97441.00
2022-10-06T20:27:41.506Z,97452.94
2022-10-06T20:30:11.725Z,97439.34
2022-10-06T20:32:41.692Z,97446.53
2022-10-06T20:35:10.443Z,97452.88
2022-10-06T20:37:42.492Z,97434.81
2022-10-06T20:40:29.928Z,97449.44
2022-10-06T20:42:59.983Z,97446.25
2022-10-06T20:45:30.494Z,97450.00
2022-10-06T20:48:00.683Z,97430.13
2022-10-06T20:50:32.659Z,97451.91
2022-10-06T20:53:01.486Z,97460.41
2022-10-06T20:55:30.407Z,97454.53
2022-10-06T20:57:59.369Z,97454.28
2022-10-06T21:00:29.224Z,97466.72
2022-10-06T21:02:58.286Z,97462.41
2022-10-06T21:05:27.105Z,97462.91
2022-10-06T21:07:55.893Z,97465.00
2022-10-06T21:10:24.599Z,97466.06
2022-10-06T21:12:53.372Z,97466.06
2022-10-06T21:15:22.244Z,97467.38
2022-10-06T21:17:50.972Z,97462.06
2022-10-06T21:20:19.742Z,97466.56
2022-10-06T21:22:48.509Z,97473.22
2022-10-06T21:25:17.279Z,97477.72
2022-10-06T21:27:47.729Z,97472.69
2022-10-06T21:30:16.520Z,97484.66
2022-10-06T21:32:45.279Z,97493.97
2022-10-06T21:35:13.994Z,97494.50
2022-10-06T21:37:42.999Z,97487.31
2022-10-06T21:40:11.965Z,97491.59
2022-10-06T21:42:40.950Z,97493.97
2022-10-06T21:45:10.100Z,97498.47
2022-10-06T21:47:38.875Z,97492.09
2022-10-06T21:50:08.104Z,97507.75
2022-10-06T21:52:36.878Z,97504.31
2022-10-06T21:55:06.074Z,97515.50
2022-10-06T21:57:34.827Z,97502.72
2022-10-06T22:00:04.546Z,97505.91
2022-10-06T22:02:42.210Z,97513.34
2022-10-06T22:05:11.133Z,97499.59
2022-10-06T22:07:40.075Z,97524.84
2022-10-06T22:10:09.387Z,97517.66
2022-10-06T22:12:39.398Z,97518.22
2022-10-06T22:15:08.499Z,97515.31
2022-10-06T22:17:37.273Z,97526.19
2022-10-06T22:20:06.642Z,97525.16
2022-10-06T22:22:35.391Z,97534.19
2022-10-06T22:25:04.348Z,97534.47
2022-10-06T22:27:33.460Z,97540.63
2022-10-06T22:30:02.234Z,97540.06
2022-10-06T22:32:32.108Z,97539.84
2022-10-06T22:35:02.852Z,97544.91
2022-10-06T22:37:32.255Z,97544.63
2022-10-06T22:40:05.375Z,97559.53
2022-10-06T22:42:36.683Z,97548.63
2022-10-06T22:45:06.042Z,97556.59
2022-10-06T22:47:34.796Z,97558.72
2022-10-06T22:50:03.626Z,97552.63
2022-10-06T22:52:32.463Z,97558.47
2022-10-06T22:55:01.232Z,97566.69
2022-10-06T22:57:30.194Z,97568.56
2022-10-06T22:59:58.962Z,97563.78
2022-10-06T23:02:28.505Z,97566.44
2022-10-06T23:04:57.310Z,97577.88
2022-10-06T23:07:26.308Z,97565.38
2022-10-06T23:09:55.145Z,97574.44
2022-10-06T23:12:24.027Z,97581.06
2022-10-06T23:14:52.715Z,97576.00
2022-10-06T23:17:21.507Z,97578.16
2022-10-06T23:19:50.284Z,97578.94
2022-10-06T23:22:19.101Z,97571.22
2022-10-06T23:24:47.825Z,97576.84
2022-10-06T23:27:16.572Z,97583.78
2022-10-06T23:29:45.403Z,97589.94
2022-10-06T23:32:14.406Z,97591.53
2022-10-06T23:34:43.238Z,97592.63
2022-10-06T23:37:12.157Z,97594.75
2022-10-06T23:39:41.059Z,97596.34
2022-10-06T23:42:10.366Z,97594.47
2022-10-06T23:44:39.321Z,97594.97
2022-10-06T23:47:08.467Z,97602.13
2022-10-06T23:49:37.242Z,97607.16
2022-10-06T23:52:06.010Z,97602.63
2022-10-06T23:54:35.129Z,97600.50
2022-10-06T23:57:04.413Z,97616.19
2022-10-06T23:59:33.272Z,97616.19
